sensor_id;sensor_type;location;lat;lon;timestamp;P1;durP1;ratioP1;P2;durP2;ratioP2
53879;SDS011;39791;53.184;5.486;2023-01-24T00:00:29;17.27;;;15.38;;
53879;SDS011;39791;53.184;5.486;2023-01-24T00:02:55;17.20;;;14.68;;
53879;SDS011;39791;53.184;5.486;2023-01-24T00:05:20;15.95;;;14.27;;
53879;SDS011;39791;53.184;5.486;2023-01-24T00:07:46;17.45;;;15.05;;
53879;SDS011;39791;53.184;5.486;2023-01-24T00:10:12;18.30;;;15.55;;
53879;SDS011;39791;53.184;5.486;2023-01-24T00:12:37;17.30;;;14.88;;
53879;SDS011;39791;53.184;5.486;2023-01-24T00:15:03;16.45;;;14.65;;
53879;SDS011;39791;53.184;5.486;2023-01-24T00:17:29;17.67;;;14.70;;
53879;SDS011;39791;53.184;5.486;2023-01-24T00:19:55;17.25;;;15.45;;
53879;SDS011;39791;53.184;5.486;2023-01-24T00:22:20;16.75;;;14.82;;
53879;SDS011;39791;53.184;5.486;2023-01-24T00:24:47;17.33;;;15.10;;
53879;SDS011;39791;53.184;5.486;2023-01-24T00:27:13;17.08;;;14.90;;
53879;SDS011;39791;53.184;5.486;2023-01-24T00:29:42;19.88;;;15.93;;
53879;SDS011;39791;53.184;5.486;2023-01-24T00:32:08;19.05;;;16.60;;
53879;SDS011;39791;53.184;5.486;2023-01-24T00:34:34;17.10;;;15.27;;
53879;SDS011;39791;53.184;5.486;2023-01-24T00:36:59;18.45;;;16.35;;
53879;SDS011;39791;53.184;5.486;2023-01-24T00:39:25;19.83;;;15.95;;
53879;SDS011;39791;53.184;5.486;2023-01-24T00:41:51;19.05;;;16.15;;
53879;SDS011;39791;53.184;5.486;2023-01-24T00:44:16;17.40;;;15.52;;
53879;SDS011;39791;53.184;5.486;2023-01-24T00:46:42;17.15;;;15.40;;
53879;SDS011;39791;53.184;5.486;2023-01-24T00:49:07;19.23;;;16.10;;
53879;SDS011;39791;53.184;5.486;2023-01-24T00:51:33;18.65;;;16.58;;
53879;SDS011;39791;53.184;5.486;2023-01-24T00:53:59;18.33;;;15.90;;
53879;SDS011;39791;53.184;5.486;2023-01-24T00:56:25;19.13;;;16.52;;
53879;SDS011;39791;53.184;5.486;2023-01-24T00:58:51;20.45;;;15.90;;
53879;SDS011;39791;53.184;5.486;2023-01-24T01:01:16;19.77;;;16.15;;
53879;SDS011;39791;53.184;5.486;2023-01-24T01:03:42;22.40;;;16.65;;
53879;SDS011;39791;53.184;5.486;2023-01-24T01:06:14;19.20;;;16.20;;
53879;SDS011;39791;53.184;5.486;2023-01-24T01:08:41;18.45;;;16.20;;
53879;SDS011;39791;53.184;5.486;2023-01-24T01:11:07;19.02;;;17.02;;
53879;SDS011;39791;53.184;5.486;2023-01-24T01:13:33;20.52;;;17.45;;
53879;SDS011;39791;53.184;5.486;2023-01-24T01:16:06;19.25;;;16.27;;
53879;SDS011;39791;53.184;5.486;2023-01-24T01:18:35;20.23;;;17.70;;
53879;SDS011;39791;53.184;5.486;2023-01-24T01:21:00;20.85;;;16.77;;
53879;SDS011;39791;53.184;5.486;2023-01-24T01:23:27;21.05;;;16.70;;
53879;SDS011;39791;53.184;5.486;2023-01-24T01:25:53;83.43;;;19.60;;
53879;SDS011;39791;53.184;5.486;2023-01-24T01:28:23;19.60;;;17.50;;
53879;SDS011;39791;53.184;5.486;2023-01-24T01:30:52;19.25;;;17.17;;
53879;SDS011;39791;53.184;5.486;2023-01-24T01:33:18;19.63;;;17.52;;
53879;SDS011;39791;53.184;5.486;2023-01-24T01:35:46;19.67;;;17.33;;
53879;SDS011;39791;53.184;5.486;2023-01-24T01:38:12;19.45;;;17.15;;
53879;SDS011;39791;53.184;5.486;2023-01-24T01:40:38;19.20;;;17.20;;
53879;SDS011;39791;53.184;5.486;2023-01-24T01:43:05;18.98;;;16.77;;
53879;SDS011;39791;53.184;5.486;2023-01-24T01:45:46;19.58;;;16.75;;
53879;SDS011;39791;53.184;5.486;2023-01-24T01:53:40;20.63;;;17.67;;
53879;SDS011;39791;53.184;5.486;2023-01-24T01:56:15;20.02;;;17.58;;
53879;SDS011;39791;53.184;5.486;2023-01-24T01:58:53;20.40;;;18.20;;
53879;SDS011;39791;53.184;5.486;2023-01-24T02:01:22;19.83;;;16.40;;
53879;SDS011;39791;53.184;5.486;2023-01-24T02:03:49;19.92;;;17.13;;
53879;SDS011;39791;53.184;5.486;2023-01-24T02:09:28;19.88;;;17.73;;
53879;SDS011;39791;53.184;5.486;2023-01-24T02:11:58;23.38;;;20.30;;
53879;SDS011;39791;53.184;5.486;2023-01-24T02:14:27;25.15;;;20.50;;
53879;SDS011;39791;53.184;5.486;2023-01-24T02:17:12;23.58;;;20.73;;
53879;SDS011;39791;53.184;5.486;2023-01-24T02:19:46;57.70;;;21.55;;
53879;SDS011;39791;53.184;5.486;2023-01-24T02:25:37;22.75;;;19.58;;
53879;SDS011;39791;53.184;5.486;2023-01-24T02:28:19;28.23;;;21.05;;
53879;SDS011;39791;53.184;5.486;2023-01-24T02:30:45;24.48;;;20.10;;
53879;SDS011;39791;53.184;5.486;2023-01-24T02:33:18;21.92;;;19.15;;
53879;SDS011;39791;53.184;5.486;2023-01-24T02:35:45;25.52;;;21.08;;
53879;SDS011;39791;53.184;5.486;2023-01-24T02:38:22;24.30;;;21.70;;
53879;SDS011;39791;53.184;5.486;2023-01-24T02:40:51;24.70;;;21.58;;
53879;SDS011;39791;53.184;5.486;2023-01-24T02:43:20;22.55;;;20.13;;
53879;SDS011;39791;53.184;5.486;2023-01-24T02:45:48;21.38;;;18.83;;
53879;SDS011;39791;53.184;5.486;2023-01-24T02:48:14;19.30;;;16.90;;
53879;SDS011;39791;53.184;5.486;2023-01-24T02:50:39;22.55;;;18.02;;
53879;SDS011;39791;53.184;5.486;2023-01-24T02:53:23;20.67;;;18.05;;
53879;SDS011;39791;53.184;5.486;2023-01-24T02:56:05;21.55;;;18.60;;
53879;SDS011;39791;53.184;5.486;2023-01-24T02:58:52;21.08;;;17.73;;
53879;SDS011;39791;53.184;5.486;2023-01-24T03:01:18;25.63;;;18.35;;
53879;SDS011;39791;53.184;5.486;2023-01-24T03:03:45;21.23;;;18.58;;
53879;SDS011;39791;53.184;5.486;2023-01-24T03:06:12;21.55;;;19.23;;
53879;SDS011;39791;53.184;5.486;2023-01-24T03:08:39;25.10;;;20.65;;
53879;SDS011;39791;53.184;5.486;2023-01-24T03:11:05;21.08;;;18.23;;
53879;SDS011;39791;53.184;5.486;2023-01-24T03:13:32;21.77;;;18.85;;
53879;SDS011;39791;53.184;5.486;2023-01-24T03:16:17;21.85;;;18.52;;
53879;SDS011;39791;53.184;5.486;2023-01-24T03:19:02;24.83;;;20.58;;
53879;SDS011;39791;53.184;5.486;2023-01-24T03:21:46;21.92;;;19.60;;
53879;SDS011;39791;53.184;5.486;2023-01-24T03:24:30;21.27;;;18.98;;
53879;SDS011;39791;53.184;5.486;2023-01-24T03:27:15;46.25;;;19.08;;
53879;SDS011;39791;53.184;5.486;2023-01-24T03:30:00;22.02;;;18.80;;
53879;SDS011;39791;53.184;5.486;2023-01-24T03:32:44;23.08;;;18.90;;
53879;SDS011;39791;53.184;5.486;2023-01-24T03:35:29;22.95;;;18.80;;
53879;SDS011;39791;53.184;5.486;2023-01-24T03:37:55;22.27;;;18.08;;
53879;SDS011;39791;53.184;5.486;2023-01-24T03:40:40;22.27;;;18.45;;
53879;SDS011;39791;53.184;5.486;2023-01-24T03:43:05;22.25;;;18.33;;
53879;SDS011;39791;53.184;5.486;2023-01-24T03:45:32;21.65;;;19.35;;
53879;SDS011;39791;53.184;5.486;2023-01-24T03:48:00;23.48;;;19.25;;
53879;SDS011;39791;53.184;5.486;2023-01-24T03:50:32;25.65;;;20.33;;
53879;SDS011;39791;53.184;5.486;2023-01-24T03:53:22;22.73;;;18.67;;
53879;SDS011;39791;53.184;5.486;2023-01-24T03:55:54;20.98;;;18.60;;
53879;SDS011;39791;53.184;5.486;2023-01-24T03:58:24;20.58;;;17.75;;
53879;SDS011;39791;53.184;5.486;2023-01-24T04:00:51;19.55;;;17.13;;
53879;SDS011;39791;53.184;5.486;2023-01-24T04:03:17;21.55;;;18.65;;
53879;SDS011;39791;53.184;5.486;2023-01-24T04:05:43;22.13;;;18.15;;
53879;SDS011;39791;53.184;5.486;2023-01-24T04:08:12;21.25;;;18.20;;
53879;SDS011;39791;53.184;5.486;2023-01-24T04:10:37;20.88;;;18.63;;
53879;SDS011;39791;53.184;5.486;2023-01-24T04:13:03;21.13;;;18.42;;
53879;SDS011;39791;53.184;5.486;2023-01-24T04:15:29;20.88;;;18.27;;
53879;SDS011;39791;53.184;5.486;2023-01-24T04:17:56;21.60;;;18.98;;
53879;SDS011;39791;53.184;5.486;2023-01-24T04:20:23;21.17;;;18.40;;
53879;SDS011;39791;53.184;5.486;2023-01-24T04:22:50;20.63;;;17.83;;
53879;SDS011;39791;53.184;5.486;2023-01-24T04:25:16;21.55;;;18.25;;
53879;SDS011;39791;53.184;5.486;2023-01-24T04:27:41;22.17;;;18.00;;
53879;SDS011;39791;53.184;5.486;2023-01-24T04:30:09;19.23;;;16.75;;
53879;SDS011;39791;53.184;5.486;2023-01-24T04:32:36;21.50;;;16.42;;
53879;SDS011;39791;53.184;5.486;2023-01-24T04:35:02;19.73;;;16.52;;
53879;SDS011;39791;53.184;5.486;2023-01-24T04:37:29;20.65;;;17.35;;
53879;SDS011;39791;53.184;5.486;2023-01-24T04:39:55;19.38;;;16.23;;
53879;SDS011;39791;53.184;5.486;2023-01-24T04:42:21;19.05;;;16.33;;
53879;SDS011;39791;53.184;5.486;2023-01-24T04:44:46;17.75;;;15.95;;
53879;SDS011;39791;53.184;5.486;2023-01-24T04:47:12;17.88;;;15.98;;
53879;SDS011;39791;53.184;5.486;2023-01-24T04:49:38;29.20;;;16.45;;
53879;SDS011;39791;53.184;5.486;2023-01-24T04:52:05;24.15;;;16.98;;
53879;SDS011;39791;53.184;5.486;2023-01-24T04:54:31;21.13;;;14.65;;
53879;SDS011;39791;53.184;5.486;2023-01-24T04:56:56;17.50;;;15.60;;
53879;SDS011;39791;53.184;5.486;2023-01-24T04:59:22;20.45;;;18.17;;
53879;SDS011;39791;53.184;5.486;2023-01-24T05:01:47;19.90;;;17.73;;
53879;SDS011;39791;53.184;5.486;2023-01-24T05:04:13;19.30;;;15.45;;
53879;SDS011;39791;53.184;5.486;2023-01-24T05:06:39;18.63;;;16.25;;
53879;SDS011;39791;53.184;5.486;2023-01-24T05:09:05;20.10;;;17.20;;
53879;SDS011;39791;53.184;5.486;2023-01-24T05:11:30;18.75;;;16.48;;
53879;SDS011;39791;53.184;5.486;2023-01-24T05:13:56;18.88;;;16.88;;
53879;SDS011;39791;53.184;5.486;2023-01-24T05:16:22;19.85;;;17.75;;
53879;SDS011;39791;53.184;5.486;2023-01-24T05:18:47;21.13;;;16.38;;
53879;SDS011;39791;53.184;5.486;2023-01-24T05:21:14;18.25;;;16.35;;
53879;SDS011;39791;53.184;5.486;2023-01-24T05:23:41;18.83;;;16.75;;
53879;SDS011;39791;53.184;5.486;2023-01-24T05:26:07;19.90;;;16.73;;
53879;SDS011;39791;53.184;5.486;2023-01-24T05:28:33;18.48;;;16.30;;
53879;SDS011;39791;53.184;5.486;2023-01-24T05:31:03;18.98;;;16.85;;
53879;SDS011;39791;53.184;5.486;2023-01-24T05:33:34;18.05;;;16.13;;
53879;SDS011;39791;53.184;5.486;2023-01-24T05:36:04;20.60;;;17.77;;
53879;SDS011;39791;53.184;5.486;2023-01-24T05:38:36;16.33;;;13.38;;
53879;SDS011;39791;53.184;5.486;2023-01-24T05:41:02;19.55;;;17.00;;
53879;SDS011;39791;53.184;5.486;2023-01-24T05:43:33;19.45;;;16.15;;
53879;SDS011;39791;53.184;5.486;2023-01-24T05:45:59;20.52;;;16.63;;
53879;SDS011;39791;53.184;5.486;2023-01-24T05:48:27;20.27;;;17.10;;
53879;SDS011;39791;53.184;5.486;2023-01-24T05:51:00;20.55;;;16.80;;
53879;SDS011;39791;53.184;5.486;2023-01-24T05:53:27;18.85;;;15.85;;
53879;SDS011;39791;53.184;5.486;2023-01-24T05:55:58;19.05;;;16.10;;
53879;SDS011;39791;53.184;5.486;2023-01-24T05:58:29;18.45;;;16.55;;
53879;SDS011;39791;53.184;5.486;2023-01-24T06:00:58;19.85;;;16.58;;
53879;SDS011;39791;53.184;5.486;2023-01-24T06:03:24;18.50;;;15.77;;
53879;SDS011;39791;53.184;5.486;2023-01-24T06:05:51;18.80;;;15.90;;
53879;SDS011;39791;53.184;5.486;2023-01-24T06:08:18;18.52;;;16.52;;
53879;SDS011;39791;53.184;5.486;2023-01-24T06:10:44;18.17;;;15.68;;
53879;SDS011;39791;53.184;5.486;2023-01-24T06:13:10;17.20;;;15.32;;
53879;SDS011;39791;53.184;5.486;2023-01-24T06:15:36;17.70;;;15.68;;
53879;SDS011;39791;53.184;5.486;2023-01-24T06:18:02;17.45;;;15.55;;
53879;SDS011;39791;53.184;5.486;2023-01-24T06:20:29;18.13;;;15.70;;
53879;SDS011;39791;53.184;5.486;2023-01-24T06:23:02;17.23;;;15.40;;
53879;SDS011;39791;53.184;5.486;2023-01-24T06:25:32;18.50;;;15.48;;
53879;SDS011;39791;53.184;5.486;2023-01-24T06:27:58;21.17;;;17.67;;
53879;SDS011;39791;53.184;5.486;2023-01-24T06:30:25;19.95;;;16.55;;
53879;SDS011;39791;53.184;5.486;2023-01-24T06:38:30;17.67;;;14.52;;
53879;SDS011;39791;53.184;5.486;2023-01-24T06:40:56;16.60;;;14.00;;
53879;SDS011;39791;53.184;5.486;2023-01-24T06:43:24;15.93;;;13.88;;
53879;SDS011;39791;53.184;5.486;2023-01-24T06:45:50;15.00;;;12.80;;
53879;SDS011;39791;53.184;5.486;2023-01-24T06:48:16;15.85;;;13.82;;
53879;SDS011;39791;53.184;5.486;2023-01-24T06:50:41;16.38;;;13.57;;
53879;SDS011;39791;53.184;5.486;2023-01-24T06:53:07;15.73;;;14.05;;
53879;SDS011;39791;53.184;5.486;2023-01-24T06:55:33;16.52;;;14.48;;
53879;SDS011;39791;53.184;5.486;2023-01-24T06:58:00;16.20;;;14.48;;
53879;SDS011;39791;53.184;5.486;2023-01-24T07:00:27;17.10;;;15.18;;
53879;SDS011;39791;53.184;5.486;2023-01-24T07:03:00;16.00;;;14.32;;
53879;SDS011;39791;53.184;5.486;2023-01-24T07:05:27;16.55;;;14.73;;
53879;SDS011;39791;53.184;5.486;2023-01-24T07:07:54;17.42;;;14.30;;
53879;SDS011;39791;53.184;5.486;2023-01-24T07:10:19;20.10;;;16.77;;
53879;SDS011;39791;53.184;5.486;2023-01-24T07:12:45;16.40;;;14.23;;
53879;SDS011;39791;53.184;5.486;2023-01-24T07:15:12;16.75;;;14.50;;
53879;SDS011;39791;53.184;5.486;2023-01-24T07:17:38;19.40;;;15.27;;
53879;SDS011;39791;53.184;5.486;2023-01-24T07:20:04;17.67;;;14.70;;
53879;SDS011;39791;53.184;5.486;2023-01-24T07:22:30;17.95;;;15.32;;
53879;SDS011;39791;53.184;5.486;2023-01-24T07:24:56;19.55;;;15.75;;
53879;SDS011;39791;53.184;5.486;2023-01-24T07:27:22;20.02;;;17.05;;
53879;SDS011;39791;53.184;5.486;2023-01-24T07:29:48;19.45;;;16.27;;
53879;SDS011;39791;53.184;5.486;2023-01-24T07:32:13;18.73;;;16.27;;
53879;SDS011;39791;53.184;5.486;2023-01-24T07:34:39;20.02;;;16.48;;
53879;SDS011;39791;53.184;5.486;2023-01-24T07:37:07;20.30;;;16.77;;
53879;SDS011;39791;53.184;5.486;2023-01-24T07:39:33;18.42;;;16.45;;
53879;SDS011;39791;53.184;5.486;2023-01-24T07:41:59;23.88;;;17.40;;
53879;SDS011;39791;53.184;5.486;2023-01-24T07:44:24;19.05;;;16.58;;
53879;SDS011;39791;53.184;5.486;2023-01-24T07:46:50;18.77;;;16.23;;
53879;SDS011;39791;53.184;5.486;2023-01-24T07:49:15;20.08;;;16.88;;
53879;SDS011;39791;53.184;5.486;2023-01-24T07:51:41;21.60;;;17.25;;
53879;SDS011;39791;53.184;5.486;2023-01-24T07:54:07;22.35;;;18.02;;
53879;SDS011;39791;53.184;5.486;2023-01-24T07:56:33;19.80;;;16.83;;
53879;SDS011;39791;53.184;5.486;2023-01-24T07:58:58;22.38;;;17.33;;
53879;SDS011;39791;53.184;5.486;2023-01-24T08:01:24;21.63;;;16.80;;
53879;SDS011;39791;53.184;5.486;2023-01-24T08:03:53;23.58;;;17.45;;
53879;SDS011;39791;53.184;5.486;2023-01-24T08:06:22;22.77;;;19.13;;
53879;SDS011;39791;53.184;5.486;2023-01-24T08:08:48;23.55;;;16.63;;
53879;SDS011;39791;53.184;5.486;2023-01-24T08:11:13;21.40;;;18.00;;
53879;SDS011;39791;53.184;5.486;2023-01-24T08:13:42;21.92;;;18.08;;
53879;SDS011;39791;53.184;5.486;2023-01-24T08:16:10;24.80;;;18.90;;
53879;SDS011;39791;53.184;5.486;2023-01-24T08:18:36;22.05;;;18.73;;
53879;SDS011;39791;53.184;5.486;2023-01-24T08:21:02;22.40;;;18.48;;
53879;SDS011;39791;53.184;5.486;2023-01-24T08:23:29;22.17;;;19.25;;
53879;SDS011;39791;53.184;5.486;2023-01-24T08:26:01;23.67;;;19.08;;
53879;SDS011;39791;53.184;5.486;2023-01-24T08:28:27;76.75;;;23.33;;
53879;SDS011;39791;53.184;5.486;2023-01-24T08:30:56;24.67;;;19.83;;
53879;SDS011;39791;53.184;5.486;2023-01-24T08:33:22;24.20;;;19.00;;
53879;SDS011;39791;53.184;5.486;2023-01-24T08:35:48;25.85;;;19.88;;
53879;SDS011;39791;53.184;5.486;2023-01-24T08:38:14;26.30;;;21.67;;
53879;SDS011;39791;53.184;5.486;2023-01-24T08:40:40;25.70;;;21.05;;
53879;SDS011;39791;53.184;5.486;2023-01-24T08:43:07;28.80;;;21.83;;
53879;SDS011;39791;53.184;5.486;2023-01-24T08:45:32;27.85;;;22.35;;
53879;SDS011;39791;53.184;5.486;2023-01-24T08:47:58;27.40;;;22.23;;
53879;SDS011;39791;53.184;5.486;2023-01-24T08:50:24;28.75;;;22.05;;
53879;SDS011;39791;53.184;5.486;2023-01-24T08:52:53;28.77;;;22.30;;
53879;SDS011;39791;53.184;5.486;2023-01-24T08:55:19;27.00;;;23.67;;
53879;SDS011;39791;53.184;5.486;2023-01-24T08:57:45;26.92;;;20.58;;
53879;SDS011;39791;53.184;5.486;2023-01-24T09:00:11;27.45;;;23.33;;
53879;SDS011;39791;53.184;5.486;2023-01-24T09:02:37;25.40;;;21.70;;
53879;SDS011;39791;53.184;5.486;2023-01-24T09:05:06;26.95;;;22.55;;
53879;SDS011;39791;53.184;5.486;2023-01-24T09:07:33;32.38;;;24.58;;
53879;SDS011;39791;53.184;5.486;2023-01-24T09:10:03;28.85;;;24.58;;
53879;SDS011;39791;53.184;5.486;2023-01-24T09:12:28;30.10;;;23.63;;
53879;SDS011;39791;53.184;5.486;2023-01-24T09:14:56;35.38;;;24.17;;
53879;SDS011;39791;53.184;5.486;2023-01-24T09:17:22;28.88;;;23.80;;
53879;SDS011;39791;53.184;5.486;2023-01-24T09:19:47;27.40;;;23.25;;
53879;SDS011;39791;53.184;5.486;2023-01-24T09:22:13;27.85;;;23.48;;
53879;SDS011;39791;53.184;5.486;2023-01-24T09:24:39;28.63;;;23.05;;
53879;SDS011;39791;53.184;5.486;2023-01-24T09:27:04;29.13;;;23.63;;
53879;SDS011;39791;53.184;5.486;2023-01-24T09:29:30;28.30;;;23.33;;
53879;SDS011;39791;53.184;5.486;2023-01-24T09:31:55;28.42;;;23.30;;
53879;SDS011;39791;53.184;5.486;2023-01-24T09:34:21;30.17;;;24.90;;
53879;SDS011;39791;53.184;5.486;2023-01-24T09:36:47;30.48;;;24.05;;
53879;SDS011;39791;53.184;5.486;2023-01-24T09:39:14;27.73;;;21.85;;
53879;SDS011;39791;53.184;5.486;2023-01-24T09:42:00;30.08;;;24.42;;
53879;SDS011;39791;53.184;5.486;2023-01-24T09:44:39;31.35;;;25.23;;
53879;SDS011;39791;53.184;5.486;2023-01-24T09:47:15;31.40;;;24.55;;
53879;SDS011;39791;53.184;5.486;2023-01-24T09:49:43;31.25;;;25.45;;
53879;SDS011;39791;53.184;5.486;2023-01-24T09:55:18;31.00;;;23.58;;
53879;SDS011;39791;53.184;5.486;2023-01-24T10:00:24;30.38;;;23.98;;
53879;SDS011;39791;53.184;5.486;2023-01-24T10:02:56;26.70;;;23.25;;
53879;SDS011;39791;53.184;5.486;2023-01-24T10:05:40;30.05;;;23.23;;
53879;SDS011;39791;53.184;5.486;2023-01-24T10:08:18;33.17;;;25.95;;
53879;SDS011;39791;53.184;5.486;2023-01-24T10:21:45;31.40;;;24.08;;
53879;SDS011;39791;53.184;5.486;2023-01-24T10:24:27;29.00;;;23.83;;
53879;SDS011;39791;53.184;5.486;2023-01-24T10:26:57;27.60;;;22.27;;
53879;SDS011;39791;53.184;5.486;2023-01-24T10:29:25;28.95;;;23.10;;
53879;SDS011;39791;53.184;5.486;2023-01-24T10:32:01;31.20;;;23.02;;
53879;SDS011;39791;53.184;5.486;2023-01-24T10:34:41;29.90;;;23.75;;
53879;SDS011;39791;53.184;5.486;2023-01-24T10:37:17;26.48;;;22.70;;
53879;SDS011;39791;53.184;5.486;2023-01-24T10:39:47;27.23;;;21.88;;
53879;SDS011;39791;53.184;5.486;2023-01-24T10:44:47;30.13;;;22.55;;
53879;SDS011;39791;53.184;5.486;2023-01-24T10:50:04;30.65;;;22.27;;
53879;SDS011;39791;53.184;5.486;2023-01-24T10:52:32;29.38;;;22.95;;
53879;SDS011;39791;53.184;5.486;2023-01-24T10:54:59;31.20;;;24.50;;
53879;SDS011;39791;53.184;5.486;2023-01-24T10:59:55;30.42;;;23.15;;
53879;SDS011;39791;53.184;5.486;2023-01-24T11:02:25;29.92;;;23.77;;
53879;SDS011;39791;53.184;5.486;2023-01-24T11:04:58;29.10;;;23.90;;
53879;SDS011;39791;53.184;5.486;2023-01-24T11:07:26;29.02;;;24.13;;
53879;SDS011;39791;53.184;5.486;2023-01-24T11:09:54;31.77;;;25.75;;
53879;SDS011;39791;53.184;5.486;2023-01-24T11:12:22;31.17;;;23.05;;
53879;SDS011;39791;53.184;5.486;2023-01-24T11:14:48;26.35;;;21.27;;
53879;SDS011;39791;53.184;5.486;2023-01-24T11:17:29;25.65;;;21.17;;
53879;SDS011;39791;53.184;5.486;2023-01-24T11:19:58;26.20;;;20.85;;
53879;SDS011;39791;53.184;5.486;2023-01-24T11:23:05;24.30;;;20.02;;
53879;SDS011;39791;53.184;5.486;2023-01-24T11:25:41;25.00;;;19.75;;
53879;SDS011;39791;53.184;5.486;2023-01-24T11:28:26;24.58;;;20.17;;
53879;SDS011;39791;53.184;5.486;2023-01-24T11:30:52;38.42;;;21.00;;
53879;SDS011;39791;53.184;5.486;2023-01-24T11:33:31;24.65;;;19.75;;
53879;SDS011;39791;53.184;5.486;2023-01-24T11:36:03;23.90;;;18.83;;
53879;SDS011;39791;53.184;5.486;2023-01-24T11:38:56;23.33;;;19.55;;
53879;SDS011;39791;53.184;5.486;2023-01-24T11:55:41;21.45;;;17.48;;
53879;SDS011;39791;53.184;5.486;2023-01-24T12:03:33;20.33;;;16.35;;
53879;SDS011;39791;53.184;5.486;2023-01-24T12:09:04;203.90;;;26.13;;
53879;SDS011;39791;53.184;5.486;2023-01-24T12:11:55;22.88;;;17.30;;
53879;SDS011;39791;53.184;5.486;2023-01-24T12:20:02;20.27;;;15.68;;
53879;SDS011;39791;53.184;5.486;2023-01-24T12:22:39;21.30;;;16.80;;
53879;SDS011;39791;53.184;5.486;2023-01-24T12:27:48;20.45;;;16.40;;
53879;SDS011;39791;53.184;5.486;2023-01-24T12:30:58;21.52;;;16.77;;
53879;SDS011;39791;53.184;5.486;2023-01-24T12:33:29;20.95;;;16.63;;
53879;SDS011;39791;53.184;5.486;2023-01-24T12:36:46;24.40;;;17.08;;
53879;SDS011;39791;53.184;5.486;2023-01-24T12:39:01;21.60;;;16.90;;
53879;SDS011;39791;53.184;5.486;2023-01-24T12:41:36;21.77;;;16.77;;
53879;SDS011;39791;53.184;5.486;2023-01-24T12:44:13;21.13;;;16.15;;
53879;SDS011;39791;53.184;5.486;2023-01-24T12:46:59;24.38;;;15.25;;
53879;SDS011;39791;53.184;5.486;2023-01-24T12:55:16;20.92;;;15.63;;
53879;SDS011;39791;53.184;5.486;2023-01-24T12:57:58;20.90;;;15.63;;
53879;SDS011;39791;53.184;5.486;2023-01-24T13:00:37;18.83;;;15.45;;
53879;SDS011;39791;53.184;5.486;2023-01-24T13:06:04;20.25;;;14.60;;
53879;SDS011;39791;53.184;5.486;2023-01-24T13:11:39;20.15;;;14.80;;
53879;SDS011;39791;53.184;5.486;2023-01-24T13:14:22;19.58;;;15.40;;
53879;SDS011;39791;53.184;5.486;2023-01-24T13:17:15;22.00;;;14.98;;
53879;SDS011;39791;53.184;5.486;2023-01-24T13:30:18;19.45;;;15.45;;
53879;SDS011;39791;53.184;5.486;2023-01-24T13:33:05;20.13;;;15.65;;
53879;SDS011;39791;53.184;5.486;2023-01-24T13:35:35;17.33;;;13.55;;
53879;SDS011;39791;53.184;5.486;2023-01-24T13:38:15;22.05;;;15.02;;
53879;SDS011;39791;53.184;5.486;2023-01-24T13:41:01;20.58;;;16.17;;
53879;SDS011;39791;53.184;5.486;2023-01-24T13:46:16;19.85;;;15.35;;
53879;SDS011;39791;53.184;5.486;2023-01-24T13:48:43;19.73;;;16.30;;
53879;SDS011;39791;53.184;5.486;2023-01-24T13:53:57;21.77;;;17.02;;
53879;SDS011;39791;53.184;5.486;2023-01-24T13:56:23;20.45;;;14.00;;
53879;SDS011;39791;53.184;5.486;2023-01-24T13:58:49;24.70;;;17.05;;
53879;SDS011;39791;53.184;5.486;2023-01-24T14:01:17;20.77;;;16.65;;
53879;SDS011;39791;53.184;5.486;2023-01-24T14:03:52;21.58;;;16.20;;
53879;SDS011;39791;53.184;5.486;2023-01-24T14:06:24;24.52;;;15.85;;
53879;SDS011;39791;53.184;5.486;2023-01-24T14:09:01;22.20;;;16.85;;
53879;SDS011;39791;53.184;5.486;2023-01-24T14:11:31;25.65;;;16.70;;
53879;SDS011;39791;53.184;5.486;2023-01-24T14:14:01;22.20;;;16.45;;
53879;SDS011;39791;53.184;5.486;2023-01-24T14:19:24;23.23;;;16.67;;
53879;SDS011;39791;53.184;5.486;2023-01-24T14:26:52;19.40;;;16.05;;
53879;SDS011;39791;53.184;5.486;2023-01-24T14:29:20;21.95;;;16.40;;
53879;SDS011;39791;53.184;5.486;2023-01-24T14:31:50;22.00;;;17.10;;
53879;SDS011;39791;53.184;5.486;2023-01-24T14:34:24;22.98;;;17.35;;
53879;SDS011;39791;53.184;5.486;2023-01-24T14:36:57;20.67;;;16.40;;
53879;SDS011;39791;53.184;5.486;2023-01-24T14:39:27;20.50;;;16.27;;
53879;SDS011;39791;53.184;5.486;2023-01-24T14:41:56;20.20;;;15.75;;
53879;SDS011;39791;53.184;5.486;2023-01-24T14:44:31;21.80;;;17.25;;
53879;SDS011;39791;53.184;5.486;2023-01-24T14:46:58;21.40;;;16.70;;
53879;SDS011;39791;53.184;5.486;2023-01-24T14:49:30;21.70;;;17.15;;
53879;SDS011;39791;53.184;5.486;2023-01-24T14:52:00;20.58;;;16.70;;
53879;SDS011;39791;53.184;5.486;2023-01-24T14:54:27;20.77;;;16.48;;
53879;SDS011;39791;53.184;5.486;2023-01-24T14:56:53;55.00;;;19.52;;
53879;SDS011;39791;53.184;5.486;2023-01-24T14:59:20;21.63;;;16.30;;
53879;SDS011;39791;53.184;5.486;2023-01-24T15:01:49;23.80;;;15.65;;
53879;SDS011;39791;53.184;5.486;2023-01-24T15:07:02;23.02;;;15.82;;
53879;SDS011;39791;53.184;5.486;2023-01-24T15:09:47;23.42;;;15.98;;
53879;SDS011;39791;53.184;5.486;2023-01-24T15:14:54;20.00;;;16.13;;
53879;SDS011;39791;53.184;5.486;2023-01-24T15:17:22;22.95;;;16.67;;
53879;SDS011;39791;53.184;5.486;2023-01-24T15:19:50;22.10;;;16.67;;
53879;SDS011;39791;53.184;5.486;2023-01-24T15:22:38;22.52;;;17.60;;
53879;SDS011;39791;53.184;5.486;2023-01-24T15:25:14;22.13;;;17.70;;
53879;SDS011;39791;53.184;5.486;2023-01-24T15:27:46;24.52;;;18.00;;
53879;SDS011;39791;53.184;5.486;2023-01-24T15:32:48;22.20;;;17.30;;
53879;SDS011;39791;53.184;5.486;2023-01-24T15:35:39;246.70;;;24.60;;
53879;SDS011;39791;53.184;5.486;2023-01-24T15:38:15;22.42;;;18.00;;
53879;SDS011;39791;53.184;5.486;2023-01-24T15:40:50;21.10;;;17.10;;
53879;SDS011;39791;53.184;5.486;2023-01-24T15:43:30;23.88;;;17.83;;
53879;SDS011;39791;53.184;5.486;2023-01-24T15:49:22;22.88;;;17.60;;
53879;SDS011;39791;53.184;5.486;2023-01-24T15:54:41;19.63;;;15.80;;
53879;SDS011;39791;53.184;5.486;2023-01-24T15:57:17;22.70;;;15.88;;
53879;SDS011;39791;53.184;5.486;2023-01-24T15:59:47;20.10;;;15.68;;
53879;SDS011;39791;53.184;5.486;2023-01-24T16:02:16;20.52;;;16.33;;
53879;SDS011;39791;53.184;5.486;2023-01-24T16:04:41;22.88;;;17.45;;
53879;SDS011;39791;53.184;5.486;2023-01-24T16:07:07;22.52;;;16.33;;
53879;SDS011;39791;53.184;5.486;2023-01-24T16:09:33;23.55;;;18.02;;
53879;SDS011;39791;53.184;5.486;2023-01-24T16:11:59;21.17;;;16.92;;
53879;SDS011;39791;53.184;5.486;2023-01-24T16:14:25;21.40;;;16.80;;
53879;SDS011;39791;53.184;5.486;2023-01-24T16:16:52;22.58;;;16.58;;
53879;SDS011;39791;53.184;5.486;2023-01-24T16:19:20;22.77;;;17.13;;
53879;SDS011;39791;53.184;5.486;2023-01-24T16:21:47;19.58;;;15.95;;
53879;SDS011;39791;53.184;5.486;2023-01-24T16:24:13;22.60;;;16.65;;
53879;SDS011;39791;53.184;5.486;2023-01-24T16:26:39;22.30;;;17.58;;
53879;SDS011;39791;53.184;5.486;2023-01-24T16:29:11;21.63;;;17.80;;
53879;SDS011;39791;53.184;5.486;2023-01-24T16:31:39;24.80;;;18.80;;
53879;SDS011;39791;53.184;5.486;2023-01-24T16:34:04;21.70;;;17.60;;
53879;SDS011;39791;53.184;5.486;2023-01-24T16:36:31;21.88;;;17.92;;
53879;SDS011;39791;53.184;5.486;2023-01-24T16:38:57;23.15;;;17.80;;